createdAt,value
2018-03-25T00:00:54.008Z,18.98
2018-03-25T00:03:21.472Z,19.95
2018-03-25T00:05:48.934Z,20.80
2018-03-25T00:08:16.774Z,20.10
2018-03-25T00:10:44.241Z,18.67
2018-03-25T00:13:11.702Z,15.70
2018-03-25T00:15:39.706Z,17.17
2018-03-25T00:18:07.165Z,16.43
2018-03-25T00:20:34.637Z,17.60
2018-03-25T00:23:02.377Z,18.77
2018-03-25T00:25:29.836Z,19.10
2018-03-25T00:27:57.308Z,17.63
2018-03-25T00:30:25.062Z,16.03
2018-03-25T00:32:52.530Z,17.55
2018-03-25T00:35:19.980Z,17.40
2018-03-25T00:37:47.750Z,17.47
2018-03-25T00:40:15.205Z,19.30
2018-03-25T00:42:42.673Z,18.95
2018-03-25T00:45:10.432Z,17.87
2018-03-25T00:47:37.897Z,17.20
2018-03-25T00:50:05.349Z,17.20
2018-03-25T00:52:33.056Z,16.50
2018-03-25T00:55:00.537Z,17.08
2018-03-25T00:57:28.412Z,15.43
2018-03-25T00:59:56.417Z,16.13
2018-03-25T01:02:23.876Z,15.68
2018-03-25T01:04:51.333Z,16.33
2018-03-25T01:07:19.116Z,15.30
2018-03-25T01:09:46.579Z,16.37
2018-03-25T01:12:14.043Z,17.05
2018-03-25T01:14:41.802Z,16.33
2018-03-25T01:17:09.262Z,16.37
2018-03-25T01:19:36.731Z,16.23
2018-03-25T01:22:04.530Z,17.77
2018-03-25T01:24:32.002Z,15.17
2018-03-25T01:26:59.462Z,17.92
2018-03-25T01:29:27.482Z,15.70
2018-03-25T01:31:54.941Z,15.48
2018-03-25T01:34:22.402Z,16.73
2018-03-25T01:36:50.474Z,17.10
2018-03-25T01:39:17.938Z,16.23
2018-03-25T01:41:45.393Z,18.20
2018-03-25T01:44:13.104Z,17.40
2018-03-25T01:46:40.626Z,16.98
2018-03-25T01:49:08.099Z,16.17
2018-03-25T01:51:35.860Z,19.13
2018-03-25T01:54:03.320Z,16.00
2018-03-25T01:56:30.776Z,18.03
2018-03-25T01:58:59.355Z,19.20
2018-03-25T02:01:26.816Z,16.80
2018-03-25T02:03:54.406Z,17.60
2018-03-25T02:06:22.157Z,16.43
2018-03-25T02:08:49.970Z,17.48
2018-03-25T02:11:17.440Z,17.17
2018-03-25T02:13:45.454Z,19.73
2018-03-25T02:16:12.901Z,16.10
2018-03-25T02:18:40.356Z,18.17
2018-03-25T02:21:08.128Z,18.20
2018-03-25T02:23:35.586Z,17.43
2018-03-25T02:26:03.046Z,18.83
2018-03-25T02:28:31.110Z,18.20
2018-03-25T02:30:58.569Z,20.30
2018-03-25T02:33:26.026Z,18.40
2018-03-25T02:35:53.746Z,20.35
2018-03-25T02:38:21.215Z,20.23
2018-03-25T02:40:49.014Z,19.77
2018-03-25T02:43:16.605Z,21.60
2018-03-25T02:45:44.072Z,21.47
2018-03-25T02:48:11.532Z,20.08
2018-03-25T02:50:39.197Z,19.60
2018-03-25T02:53:06.673Z,22.00
2018-03-25T02:55:34.128Z,24.00
2018-03-25T02:58:01.909Z,22.40
2018-03-25T03:00:30.022Z,23.23
2018-03-25T03:02:57.484Z,23.10
2018-03-25T03:05:25.181Z,24.00
2018-03-25T03:07:52.652Z,22.97
2018-03-25T03:10:20.114Z,21.83
2018-03-25T03:12:47.857Z,23.87
2018-03-25T03:15:15.314Z,24.43
2018-03-25T03:17:42.769Z,22.80
2018-03-25T03:20:10.552Z,22.65
2018-03-25T03:22:38.010Z,25.20
2018-03-25T03:25:05.482Z,22.73
2018-03-25T03:27:33.183Z,23.30
2018-03-25T03:30:00.657Z,25.15
2018-03-25T03:32:28.134Z,24.70
2018-03-25T03:34:55.935Z,25.25
2018-03-25T03:37:23.393Z,25.63
2018-03-25T03:39:50.865Z,23.10
2018-03-25T03:42:18.456Z,27.17
2018-03-25T03:44:45.921Z,25.77
2018-03-25T03:47:13.377Z,24.27
2018-03-25T03:49:41.165Z,26.17
2018-03-25T03:52:08.626Z,27.13
2018-03-25T03:54:36.096Z,27.30
2018-03-25T03:57:03.990Z,26.87
2018-03-25T03:59:31.460Z,28.10
2018-03-25T04:01:59.608Z,30.63
2018-03-25T04:04:27.297Z,27.77
2018-03-25T04:06:54.749Z,27.97
2018-03-25T04:09:22.221Z,27.13
2018-03-25T04:11:49.981Z,28.30
2018-03-25T04:14:17.726Z,27.13
2018-03-25T04:16:45.190Z,28.97
2018-03-25T04:19:12.980Z,26.62
2018-03-25T04:21:40.447Z,29.30
2018-03-25T04:24:07.911Z,28.83
2018-03-25T04:26:35.659Z,31.20
2018-03-25T04:29:03.122Z,29.80
2018-03-25T04:31:30.581Z,31.57
2018-03-25T04:33:58.343Z,32.47
2018-03-25T04:36:25.814Z,34.03
2018-03-25T04:38:53.286Z,29.27
2018-03-25T04:41:21.088Z,31.15
2018-03-25T04:43:48.549Z,35.25
2018-03-25T04:46:16.021Z,31.80
2018-03-25T04:48:44.030Z,32.57
2018-03-25T04:51:12.547Z,33.22
2018-03-25T04:53:40.011Z,34.20
2018-03-25T04:56:07.950Z,35.97
2018-03-25T04:58:35.414Z,35.22
2018-03-25T05:01:02.874Z,34.97
2018-03-25T05:03:31.253Z,36.27
2018-03-25T05:05:58.713Z,35.07
2018-03-25T05:08:26.168Z,36.37
2018-03-25T05:10:53.918Z,36.60
2018-03-25T05:13:21.382Z,35.77
2018-03-25T05:15:48.849Z,37.40
2018-03-25T05:18:16.665Z,38.17
2018-03-25T05:20:44.133Z,40.23
2018-03-25T05:23:11.597Z,34.60
2018-03-25T05:25:39.458Z,37.37
2018-03-25T05:28:06.937Z,35.47
2018-03-25T05:30:34.395Z,35.93
2018-03-25T05:33:02.293Z,36.73
2018-03-25T05:35:29.746Z,37.63
2018-03-25T05:37:57.212Z,38.03
2018-03-25T05:40:24.981Z,38.03
2018-03-25T05:42:52.433Z,35.17
2018-03-25T05:45:19.891Z,37.30
2018-03-25T05:47:47.616Z,39.37
2018-03-25T05:50:15.078Z,37.00
2018-03-25T05:52:42.549Z,34.23
2018-03-25T05:55:10.360Z,37.83
2018-03-25T05:57:37.837Z,35.65
2018-03-25T06:00:05.291Z,38.43
2018-03-25T06:02:33.361Z,38.00
2018-03-25T06:05:00.887Z,35.97
2018-03-25T06:07:28.371Z,38.17
2018-03-25T06:09:56.368Z,34.60
2018-03-25T06:12:23.829Z,34.40
2018-03-25T06:14:51.286Z,35.77
2018-03-25T06:17:19.047Z,33.27
2018-03-25T06:19:46.510Z,33.30
2018-03-25T06:22:13.969Z,37.30
2018-03-25T06:24:41.838Z,36.73
2018-03-25T06:27:09.289Z,34.60
2018-03-25T06:29:36.758Z,36.95
2018-03-25T06:32:04.624Z,32.97
2018-03-25T06:34:32.085Z,34.92
2018-03-25T06:36:59.537Z,31.80
2018-03-25T06:39:27.249Z,33.23
2018-03-25T06:41:54.704Z,37.30
2018-03-25T06:44:22.177Z,36.30
2018-03-25T06:46:50.073Z,34.23
2018-03-25T06:49:17.534Z,33.10
2018-03-25T06:51:44.985Z,34.73
2018-03-25T06:54:13.114Z,35.00
2018-03-25T06:56:40.631Z,35.43
2018-03-25T06:59:08.099Z,32.30
2018-03-25T07:01:35.823Z,34.27
2018-03-25T07:04:03.278Z,36.50
2018-03-25T07:06:31.408Z,35.00
2018-03-25T07:08:59.139Z,36.00
2018-03-25T07:11:27.081Z,33.65
2018-03-25T07:13:54.548Z,42.27
2018-03-25T07:16:22.325Z,33.70
2018-03-25T07:18:49.796Z,33.43
2018-03-25T07:21:17.283Z,31.33
2018-03-25T07:23:46.016Z,35.10
2018-03-25T07:26:13.497Z,31.10
2018-03-25T07:28:40.954Z,32.87
2018-03-25T07:31:09.037Z,34.07
2018-03-25T07:33:36.499Z,31.42
2018-03-25T07:36:03.963Z,28.77
2018-03-25T07:38:31.980Z,30.80
2018-03-25T07:40:59.437Z,30.80
2018-03-25T07:43:26.909Z,30.60
2018-03-25T07:45:54.665Z,32.23
2018-03-25T07:48:22.126Z,28.17
2018-03-25T07:50:49.593Z,30.02
2018-03-25T07:53:17.690Z,31.57
2018-03-25T07:55:45.170Z,30.00
2018-03-25T07:58:12.634Z,27.73
2018-03-25T08:00:40.340Z,27.53
2018-03-25T08:03:07.805Z,27.17
2018-03-25T08:05:35.284Z,27.10
2018-03-25T08:08:03.636Z,27.67
2018-03-25T08:10:31.098Z,27.10
2018-03-25T08:12:58.743Z,26.77
2018-03-25T08:15:26.629Z,28.97
2018-03-25T08:17:54.101Z,24.07
2018-03-25T08:20:21.567Z,25.97
2018-03-25T08:22:49.332Z,24.80
2018-03-25T08:25:16.793Z,27.67
2018-03-25T08:27:44.266Z,27.00
2018-03-25T08:30:12.366Z,27.83
2018-03-25T08:32:39.831Z,23.10
2018-03-25T08:35:07.293Z,21.67
2018-03-25T08:37:34.892Z,23.70
2018-03-25T08:40:02.365Z,22.30
2018-03-25T08:42:29.845Z,26.17
2018-03-25T08:44:57.704Z,24.83
2018-03-25T08:47:25.158Z,25.17
2018-03-25T08:49:52.621Z,23.17
2018-03-25T08:52:20.390Z,24.52
2018-03-25T08:54:47.861Z,25.20
2018-03-25T08:57:15.333Z,24.42
2018-03-25T08:59:43.373Z,24.10
2018-03-25T09:02:10.832Z,25.10
2018-03-25T09:04:38.297Z,23.10
2018-03-25T09:07:05.893Z,27.93
2018-03-25T09:09:33.912Z,25.67
2018-03-25T09:12:01.424Z,26.80
2018-03-25T09:14:29.382Z,23.10
2018-03-25T09:16:56.849Z,23.57
2018-03-25T09:19:24.337Z,25.70
2018-03-25T09:21:52.063Z,25.27
2018-03-25T09:24:19.530Z,22.27
2018-03-25T09:26:47.226Z,24.70
2018-03-25T09:29:15.041Z,25.90
2018-03-25T09:31:43.369Z,25.08
2018-03-25T09:34:10.837Z,23.23
2018-03-25T09:36:38.672Z,23.23
2018-03-25T09:39:06.128Z,24.00
2018-03-25T09:41:33.593Z,21.87
2018-03-25T09:44:01.337Z,23.23
2018-03-25T09:46:28.802Z,23.40
2018-03-25T09:48:56.269Z,26.70
2018-03-25T09:51:24.033Z,23.60
2018-03-25T09:53:51.513Z,22.08
2018-03-25T09:56:18.980Z,22.90
2018-03-25T09:58:46.720Z,21.47
2018-03-25T10:01:14.970Z,22.53
2018-03-25T10:03:42.441Z,25.77
2018-03-25T10:06:10.374Z,23.13
2018-03-25T10:08:37.841Z,26.05
2018-03-25T10:11:05.836Z,24.40
2018-03-25T10:13:33.621Z,23.27
2018-03-25T10:16:01.077Z,23.80
2018-03-25T10:18:28.536Z,25.90
2018-03-25T10:20:56.624Z,25.17
2018-03-25T10:23:24.090Z,24.00
2018-03-25T10:25:51.555Z,22.37
2018-03-25T10:28:19.305Z,24.00
2018-03-25T10:30:46.774Z,24.80
2018-03-25T10:33:14.232Z,26.17
2018-03-25T10:35:42.000Z,25.20
2018-03-25T10:38:09.470Z,22.83
2018-03-25T10:40:36.940Z,25.23
2018-03-25T10:43:04.675Z,24.50
2018-03-25T10:45:32.132Z,24.17
2018-03-25T10:47:59.602Z,24.30
2018-03-25T10:50:27.365Z,21.50
2018-03-25T10:52:54.826Z,22.60
2018-03-25T10:55:22.293Z,21.80
2018-03-25T10:57:50.062Z,25.40
2018-03-25T11:00:17.540Z,23.77
2018-03-25T11:02:45.000Z,22.07
2018-03-25T11:05:13.087Z,22.93
2018-03-25T11:07:40.600Z,23.07
2018-03-25T11:10:08.062Z,23.50
2018-03-25T11:12:36.069Z,23.57
2018-03-25T11:15:03.544Z,20.70
2018-03-25T11:17:31.017Z,22.80
2018-03-25T11:19:59.057Z,23.93
2018-03-25T11:22:26.541Z,24.03
2018-03-25T11:24:54.016Z,22.77
2018-03-25T11:27:22.035Z,23.63
2018-03-25T11:29:49.523Z,19.43
2018-03-25T11:32:17.003Z,22.60
2018-03-25T11:34:45.053Z,21.47
2018-03-25T11:37:12.529Z,19.67
2018-03-25T11:39:40.006Z,21.10
2018-03-25T11:42:07.722Z,23.67
2018-03-25T11:44:35.215Z,23.03
2018-03-25T11:47:02.698Z,21.00
2018-03-25T11:49:30.412Z,21.52
2018-03-25T11:51:57.878Z,22.90
2018-03-25T11:54:25.342Z,24.30
2018-03-25T11:56:53.094Z,22.13
2018-03-25T11:59:20.570Z,20.67
2018-03-25T12:01:48.051Z,22.87
2018-03-25T12:04:15.797Z,21.87
2018-03-25T12:06:43.260Z,21.07
2018-03-25T12:09:10.730Z,22.50
2018-03-25T12:11:38.343Z,20.97
2018-03-25T12:14:06.313Z,21.55
2018-03-25T12:16:33.799Z,20.73
2018-03-25T12:19:01.849Z,19.03
2018-03-25T12:21:29.317Z,21.70
2018-03-25T12:23:56.777Z,21.80
2018-03-25T12:26:24.763Z,21.17
2018-03-25T12:28:52.236Z,25.20
2018-03-25T12:31:19.709Z,21.77
2018-03-25T12:33:47.453Z,20.10
2018-03-25T12:36:14.911Z,20.20
2018-03-25T12:38:42.407Z,18.70
2018-03-25T12:41:10.130Z,20.33
2018-03-25T12:43:37.612Z,19.00
2018-03-25T12:46:05.081Z,17.97
2018-03-25T12:48:33.140Z,19.80
2018-03-25T12:51:00.603Z,18.87
2018-03-25T12:53:28.086Z,18.50
2018-03-25T12:55:55.816Z,18.02
2018-03-25T12:58:23.282Z,19.63
2018-03-25T13:00:50.750Z,18.80
2018-03-25T13:03:18.818Z,18.85
2018-03-25T13:05:46.276Z,21.03
2018-03-25T13:08:13.740Z,19.10
2018-03-25T13:10:41.493Z,19.10
2018-03-25T13:13:08.962Z,17.60
2018-03-25T13:15:38.641Z,18.97
2018-03-25T13:18:06.492Z,20.48
2018-03-25T13:20:33.961Z,18.40
2018-03-25T13:23:01.421Z,17.93
2018-03-25T13:25:29.346Z,19.60
2018-03-25T13:27:56.793Z,19.17
2018-03-25T13:30:24.262Z,17.85
2018-03-25T13:32:52.001Z,19.83
2018-03-25T13:35:19.468Z,18.08
2018-03-25T13:37:46.962Z,19.60
2018-03-25T13:40:14.991Z,16.60
2018-03-25T13:42:42.459Z,19.10
2018-03-25T13:45:09.918Z,17.37
2018-03-25T13:47:37.659Z,18.10
2018-03-25T13:50:05.221Z,17.57
2018-03-25T13:52:32.713Z,18.63
2018-03-25T13:55:00.390Z,17.50
2018-03-25T13:57:27.872Z,18.63
2018-03-25T13:59:55.365Z,19.10
2018-03-25T14:02:23.092Z,17.23
2018-03-25T14:04:50.628Z,18.83
2018-03-25T14:07:18.105Z,18.08
2018-03-25T14:09:46.077Z,17.53
2018-03-25T14:12:13.560Z,17.30
2018-03-25T14:14:41.654Z,19.40
2018-03-25T14:17:09.901Z,18.43
2018-03-25T14:19:37.393Z,16.67
2018-03-25T14:22:04.862Z,18.00
2018-03-25T14:24:32.696Z,17.37
2018-03-25T14:27:00.182Z,18.90
2018-03-25T14:29:27.657Z,15.70
2018-03-25T14:31:55.329Z,15.83
2018-03-25T14:34:22.798Z,15.97
2018-03-25T14:36:50.254Z,17.48
2018-03-25T14:39:17.893Z,25.43
2018-03-25T14:41:45.358Z,13.77
2018-03-25T14:44:12.822Z,15.80
2018-03-25T14:46:40.731Z,17.63
2018-03-25T14:49:08.365Z,15.70
2018-03-25T14:51:35.867Z,17.23
2018-03-25T14:54:03.744Z,17.47
2018-03-25T14:56:31.285Z,16.67
2018-03-25T14:58:58.744Z,17.80
2018-03-25T15:01:26.742Z,16.40
2018-03-25T15:03:54.227Z,15.50
2018-03-25T15:06:21.714Z,15.50
2018-03-25T15:08:49.427Z,16.53
2018-03-25T15:11:16.903Z,23.57
2018-03-25T15:13:44.411Z,16.77
2018-03-25T15:16:12.109Z,19.20
2018-03-25T15:18:41.494Z,16.40
2018-03-25T15:21:08.970Z,16.57
2018-03-25T15:23:36.929Z,17.70
2018-03-25T15:26:04.403Z,17.23
2018-03-25T15:28:31.907Z,16.73
2018-03-25T15:30:59.926Z,17.13
2018-03-25T15:33:27.388Z,16.05
2018-03-25T15:35:55.737Z,19.40
2018-03-25T15:38:23.537Z,18.23
2018-03-25T15:40:51.013Z,17.83
2018-03-25T15:43:18.473Z,16.07
2018-03-25T15:45:46.088Z,19.40
2018-03-25T15:48:13.542Z,17.40
2018-03-25T15:50:41.009Z,16.60
2018-03-25T15:53:08.909Z,16.23
2018-03-25T15:55:36.381Z,22.10
2018-03-25T15:58:03.846Z,16.73
2018-03-25T16:00:31.639Z,16.97
2018-03-25T16:02:59.106Z,18.10
2018-03-25T16:05:26.581Z,19.93
2018-03-25T16:07:54.289Z,18.80
2018-03-25T16:10:21.753Z,19.60
2018-03-25T16:12:49.218Z,19.07
2018-03-25T16:15:16.977Z,19.97
2018-03-25T16:17:44.438Z,22.13
2018-03-25T16:20:13.681Z,21.70
2018-03-25T16:22:42.079Z,17.00
2018-03-25T16:25:09.861Z,18.53
2018-03-25T16:27:37.421Z,18.13
2018-03-25T16:30:05.164Z,18.33
2018-03-25T16:32:32.638Z,18.58
2018-03-25T16:35:00.107Z,18.80
2018-03-25T16:37:27.815Z,18.33
2018-03-25T16:39:55.279Z,19.87
2018-03-25T16:42:22.746Z,18.03
2018-03-25T16:44:50.487Z,19.53
2018-03-25T16:47:17.966Z,18.47
2018-03-25T16:49:45.454Z,18.03
2018-03-25T16:52:13.223Z,18.80
2018-03-25T16:54:40.689Z,19.27
2018-03-25T16:57:08.153Z,18.90
2018-03-25T16:59:35.869Z,19.53
2018-03-25T17:02:03.333Z,18.03
2018-03-25T17:04:31.887Z,18.87
2018-03-25T17:06:59.794Z,18.50
2018-03-25T17:09:27.259Z,16.87
2018-03-25T17:11:54.740Z,18.13
2018-03-25T17:14:22.569Z,19.57
2018-03-25T17:16:50.357Z,18.67
2018-03-25T17:19:18.057Z,18.60
2018-03-25T17:21:46.798Z,17.35
2018-03-25T17:24:14.306Z,17.50
2018-03-25T17:26:41.814Z,19.03
2018-03-25T17:29:09.692Z,17.97
2018-03-25T17:31:37.158Z,19.80
2018-03-25T17:34:04.625Z,19.60
2018-03-25T17:36:32.426Z,17.80
2018-03-25T17:39:00.091Z,17.80
2018-03-25T17:41:27.612Z,18.43
2018-03-25T17:43:55.677Z,17.63
2018-03-25T17:46:23.147Z,18.47
2018-03-25T17:48:50.610Z,18.52
2018-03-25T17:51:18.357Z,19.53
2018-03-25T17:53:45.830Z,19.40
2018-03-25T17:56:13.302Z,18.77
2018-03-25T17:58:41.051Z,20.20
2018-03-25T18:01:08.524Z,19.43
2018-03-25T18:03:36.004Z,21.27
2018-03-25T18:06:03.740Z,19.87
2018-03-25T18:08:31.206Z,19.80
2018-03-25T18:10:58.697Z,17.03
2018-03-25T18:13:26.745Z,19.48
2018-03-25T18:15:54.586Z,18.50
2018-03-25T18:18:22.073Z,20.27
2018-03-25T18:20:56.306Z,19.03
2018-03-25T18:23:17.881Z,20.07
2018-03-25T18:25:45.628Z,21.62
2018-03-25T18:28:13.645Z,19.37
2018-03-25T18:30:41.126Z,19.13
2018-03-25T18:33:08.588Z,20.77
2018-03-25T18:35:36.352Z,21.30
2018-03-25T18:38:03.817Z,20.90
2018-03-25T18:40:31.288Z,20.37
2018-03-25T18:42:59.101Z,20.83
2018-03-25T18:45:26.570Z,35.93
2018-03-25T18:47:54.053Z,20.10
2018-03-25T18:50:22.006Z,23.27
2018-03-25T18:52:49.479Z,20.50
2018-03-25T18:55:16.972Z,20.27
2018-03-25T18:57:45.051Z,18.93
2018-03-25T19:00:12.548Z,19.70
2018-03-25T19:02:40.050Z,21.47
2018-03-25T19:05:07.994Z,21.77
2018-03-25T19:07:35.449Z,20.67
2018-03-25T19:10:02.909Z,19.37
2018-03-25T19:12:30.614Z,19.65
2018-03-25T19:14:58.088Z,20.02
2018-03-25T19:17:25.552Z,22.23
2018-03-25T19:19:53.378Z,21.40
2018-03-25T19:22:20.841Z,19.87
2018-03-25T19:24:48.411Z,21.73
2018-03-25T19:27:16.368Z,22.98
2018-03-25T19:29:43.846Z,21.70
2018-03-25T19:32:11.361Z,21.87
2018-03-25T19:34:39.062Z,23.77
2018-03-25T19:37:06.525Z,29.70
2018-03-25T19:39:33.993Z,24.50
2018-03-25T19:42:01.748Z,23.12
2018-03-25T19:44:29.258Z,22.30
2018-03-25T19:46:56.723Z,22.30
2018-03-25T19:49:24.749Z,22.20
2018-03-25T19:51:52.209Z,23.10
2018-03-25T19:54:19.684Z,21.17
2018-03-25T19:56:47.417Z,21.33
2018-03-25T19:59:14.877Z,24.07
2018-03-25T20:01:42.338Z,23.57
2018-03-25T20:04:10.114Z,22.90
2018-03-25T20:06:37.584Z,23.87
2018-03-25T20:09:05.054Z,24.53
2018-03-25T20:11:32.774Z,25.00
2018-03-25T20:14:00.277Z,21.62
2018-03-25T20:16:27.754Z,21.97
2018-03-25T20:18:55.501Z,25.83
2018-03-25T20:21:22.965Z,25.10
2018-03-25T20:23:50.453Z,22.97
2018-03-25T20:26:18.476Z,24.23
2018-03-25T20:28:45.948Z,25.67
2018-03-25T20:31:13.413Z,24.80
2018-03-25T20:33:41.164Z,23.20
2018-03-25T20:36:08.651Z,25.30
2018-03-25T20:38:36.176Z,25.50
2018-03-25T20:41:03.876Z,25.98
2018-03-25T20:43:31.633Z,25.12
2018-03-25T20:45:59.107Z,26.47
2018-03-25T20:48:26.853Z,27.07
2018-03-25T20:50:55.377Z,25.55
2018-03-25T20:53:22.843Z,23.50
2018-03-25T20:55:50.762Z,26.17
2018-03-25T20:58:18.229Z,24.17
2018-03-25T21:00:45.694Z,27.17
2018-03-25T21:03:13.463Z,24.17
2018-03-25T21:05:40.923Z,27.63
2018-03-25T21:08:08.397Z,27.27
2018-03-25T21:10:36.422Z,27.70
2018-03-25T21:13:03.885Z,27.83
2018-03-25T21:15:31.347Z,27.83
2018-03-25T21:18:00.052Z,27.55
2018-03-25T21:20:27.508Z,25.80
2018-03-25T21:22:54.968Z,27.90
2018-03-25T21:25:22.739Z,26.70
2018-03-25T21:27:51.520Z,28.97
2018-03-25T21:30:18.980Z,28.67
2018-03-25T21:32:46.997Z,28.40
2018-03-25T21:35:14.476Z,29.37
2018-03-25T21:37:41.932Z,30.17
2018-03-25T21:40:09.973Z,27.40
2018-03-25T21:42:37.429Z,28.80
2018-03-25T21:45:04.881Z,26.60
2018-03-25T21:47:32.644Z,27.57
2018-03-25T21:50:00.106Z,28.17
2018-03-25T21:52:27.583Z,27.17
2018-03-25T21:54:55.336Z,29.10
2018-03-25T21:57:22.797Z,28.50
2018-03-25T21:59:50.258Z,29.35
2018-03-25T22:02:18.340Z,30.20
2018-03-25T22:04:45.796Z,30.17
2018-03-25T22:07:13.261Z,28.97
2018-03-25T22:09:40.969Z,29.83
2018-03-25T22:12:08.429Z,27.17
2018-03-25T22:14:35.890Z,28.83
2018-03-25T22:17:03.711Z,29.20
2018-03-25T22:19:31.224Z,28.20
2018-03-25T22:21:58.636Z,28.53
2018-03-25T22:24:26.385Z,29.00
2018-03-25T22:26:53.849Z,29.97
2018-03-25T22:29:21.917Z,31.90
2018-03-25T22:31:49.694Z,31.73
2018-03-25T22:34:17.170Z,29.65
2018-03-25T22:36:44.638Z,28.50
2018-03-25T22:39:12.383Z,29.77
2018-03-25T22:41:39.841Z,30.33
2018-03-25T22:44:08.356Z,30.75
2018-03-25T22:46:36.296Z,31.97
2018-03-25T22:49:03.757Z,32.30
2018-03-25T22:51:31.222Z,30.57
2018-03-25T22:53:59.038Z,30.77
2018-03-25T22:56:26.462Z,31.08
2018-03-25T22:58:54.133Z,30.20
2018-03-25T23:01:21.919Z,31.70
2018-03-25T23:03:49.379Z,30.47
2018-03-25T23:06:16.839Z,30.73
2018-03-25T23:08:44.614Z,32.20
2018-03-25T23:11:12.071Z,33.00
2018-03-25T23:13:39.537Z,33.67
2018-03-25T23:16:07.343Z,31.47
2018-03-25T23:18:34.801Z,32.27
2018-03-25T23:21:02.253Z,31.57
2018-03-25T23:23:30.033Z,32.53
2018-03-25T23:25:57.493Z,30.93
2018-03-25T23:28:24.955Z,32.15
2018-03-25T23:30:53.342Z,32.65
2018-03-25T23:33:20.801Z,32.65
2018-03-25T23:35:48.261Z,34.20
2018-03-25T23:38:16.023Z,35.27
2018-03-25T23:40:43.481Z,32.40
2018-03-25T23:43:10.940Z,31.80
2018-03-25T23:45:38.711Z,35.40
2018-03-25T23:48:06.182Z,35.47
2018-03-25T23:50:33.641Z,35.30
2018-03-25T23:53:01.403Z,34.67
2018-03-25T23:55:28.865Z,35.67
2018-03-25T23:57:56.328Z,33.65
